Time;durP1;ratioP1;P1;durP2;ratioP2;P2;SDS_P1;SDS_P2;PMS_P1;PMS_P2;Temp;Humidity;BMP_temperature;BMP_pressure;BME280_temperature;BME280_humidity;BME280_pressure;Samples;Min_cycle;Max_cycle;Signal;HPM_P1;HPM_P2
2022/10/03 00:01:25;;;;;;;4.40;2.90;;;;;;;;;;4953909;28;20047;-81
2022/10/03 00:04:28;;;;;;;4.03;2.75;;;;;;;;;;4954021;29;20047;-80
2022/10/03 00:07:35;;;;;;;3.38;2.72;;;;;;;;;;5014040;28;20472;-79
2022/10/03 00:10:37;;;;;;;7.03;2.72;;;;;;;;;;5014621;28;20038;-80
2022/10/03 00:13:33;;;;;;;4.50;2.60;;;;;;;;;;5014573;28;20049;-82
2022/10/03 00:16:28;;;;;;;4.28;2.63;;;;;;;;;;5014371;28;20045;-80
2022/10/03 00:19:38;;;;;;;5.68;2.90;;;;;;;;;;5014642;28;20041;-81
2022/10/03 00:22:51;;;;;;;5.70;3.15;;;;;;;;;;5020856;28;20045;-81
2022/10/03 00:25:48;;;;;;;7.95;4.32;;;;;;;;;;5021144;28;20046;-82
2022/10/03 00:29:06;;;;;;;6.20;3.28;;;;;;;;;;5014867;28;20041;-83
2022/10/03 00:32:06;;;;;;;7.35;2.85;;;;;;;;;;4992833;28;20049;-83
2022/10/03 00:35:17;;;;;;;8.13;3.10;;;;;;;;;;5014668;28;20033;-82
2022/10/03 00:38:06;;;;;;;4.22;2.78;;;;;;;;;;5014432;28;20423;-83
2022/10/03 00:41:00;;;;;;;3.95;2.75;;;;;;;;;;5014480;28;20045;-82
2022/10/03 00:43:55;;;;;;;;;;;;;;;;;;5014773;28;20045;-82
2022/10/03 00:46:56;;;;;;;6.53;3.10;;;;;;;;;;5015277;28;19913;-81
2022/10/03 00:50:04;;;;;;;6.82;3.13;;;;;;;;;;5015120;28;20042;-84
2022/10/03 00:53:09;;;;;;;5.25;3.05;;;;;;;;;;5014578;28;20049;-83
2022/10/03 00:56:01;;;;;;;4.40;3.00;;;;;;;;;;5014077;28;20046;-82
2022/10/03 00:59:01;;;;;;;9.85;3.30;;;;;;;;;;5021371;28;20049;-82
2022/10/03 01:01:50;;;;;;;6.30;3.67;;;;;;;;;;5017795;28;20391;-86
2022/10/03 01:05:03;;;;;;;6.45;3.10;;;;;;;;;;5017599;28;20046;-82
2022/10/03 01:08:06;;;;;;;4.82;3.10;;;;;;;;;;5003006;28;20042;-82
2022/10/03 01:11:10;;;;;;;4.97;3.42;;;;;;;;;;5017952;28;20479;-82
2022/10/03 01:14:20;;;;;;;6.07;3.55;;;;;;;;;;5017063;28;20049;-82
2022/10/03 01:17:09;;;;;;;5.20;3.20;;;;;;;;;;5017415;28;20507;-81
2022/10/03 01:20:30;;;;;;;5.90;2.70;;;;;;;;;;5017399;28;20491;-82
2022/10/03 01:23:27;;;;;;;3.63;2.60;;;;;;;;;;4996862;28;20050;-81
2022/10/03 01:26:20;;;;;;;4.65;2.78;;;;;;;;;;5016786;28;20042;-81
2022/10/03 01:32:41;;;;;;;7.22;3.00;;;;;;;;;;5016267;28;20041;-82
2022/10/03 01:35:39;;;;;;;9.52;3.33;;;;;;;;;;5023495;28;20471;-82
2022/10/03 01:38:47;;;;;;;8.07;3.80;;;;;;;;;;5016817;28;20037;-82
2022/10/03 01:41:59;;;;;;;7.25;4.63;;;;;;;;;;5016878;28;20045;-81
2022/10/03 01:44:56;;;;;;;5.72;3.38;;;;;;;;;;5016296;28;20045;-82
2022/10/03 01:47:51;;;;;;;9.40;4.40;;;;;;;;;;5023281;28;20049;-82
2022/10/03 01:50:47;;;;;;;9.30;4.90;;;;;;;;;;5016172;28;20488;-82
2022/10/03 01:53:57;;;;;;;6.53;4.53;;;;;;;;;;5022541;28;20049;-81
2022/10/03 01:56:58;;;;;;;5.78;3.38;;;;;;;;;;5016322;28;20476;-82
2022/10/03 02:00:04;;;;;;;11.80;4.38;;;;;;;;;;5016495;28;20062;-83
2022/10/03 02:03:15;;;;;;;10.00;5.35;;;;;;;;;;5021475;28;20410;-82
2022/10/03 02:06:10;;;;;;;12.10;4.88;;;;;;;;;;5018715;28;20045;-81
2022/10/03 02:09:22;;;;;;;19.98;9.52;;;;;;;;;;5023378;28;20042;-80
2022/10/03 02:12:34;;;;;;;51.25;25.83;;;;;;;;;;5015489;28;20042;-82
2022/10/03 02:15:33;;;;;;;99.95;44.28;;;;;;;;;;5022378;28;20053;-82
2022/10/03 02:18:38;;;;;;;140.10;64.40;;;;;;;;;;5015262;28;20037;-82
2022/10/03 02:21:30;;;;;;;;;;;;;;;;;;5016336;28;20053;-82
2022/10/03 02:24:18;;;;;;;135.43;64.00;;;;;;;;;;5016234;28;19913;-82
2022/10/03 02:27:33;;;;;;;149.52;71.72;;;;;;;;;;5016003;28;20041;-82
2022/10/03 02:30:53;;;;;;;37.67;18.27;;;;;;;;;;5016057;28;20034;-82
2022/10/03 02:33:53;;;;;;;15.68;6.57;;;;;;;;;;4984340;28;20050;-82
2022/10/03 02:36:58;;;;;;;15.73;8.38;;;;;;;;;;5015967;28;20046;-82
2022/10/03 02:40:21;;;;;;;11.37;7.07;;;;;;;;;;5015565;28;20399;-82
2022/10/03 02:43:10;;;;;;;13.35;6.38;;;;;;;;;;5015489;28;20264;-82
2022/10/03 02:46:14;;;;;;;14.70;5.40;;;;;;;;;;5007084;28;20491;-82
2022/10/03 02:49:17;;;;;;;11.55;5.13;;;;;;;;;;5016130;28;20038;-82
2022/10/03 02:52:12;;;;;;;12.18;5.40;;;;;;;;;;5022476;28;20054;-82
2022/10/03 02:55:26;;;;;;;7.13;4.85;;;;;;;;;;5015346;28;20046;-82
2022/10/03 02:58:41;;;;;;;9.23;5.47;;;;;;;;;;5015682;28;20399;-81
2022/10/03 03:02:04;;;;;;;10.93;5.72;;;;;;;;;;5016057;28;20046;-82
2022/10/03 03:05:07;;;;;;;6.47;4.90;;;;;;;;;;5021624;28;20050;-82
2022/10/03 03:08:28;;;;;;;7.97;5.32;;;;;;;;;;5015591;28;20037;-82
2022/10/03 03:11:48;;;;;;;10.30;5.65;;;;;;;;;;5006519;28;20042;-83
2022/10/03 03:15:08;;;;;;;7.28;5.00;;;;;;;;;;5021848;28;20395;-81
2022/10/03 03:18:21;;;;;;;12.15;4.93;;;;;;;;;;5015851;28;20050;-82
2022/10/03 03:21:28;;;;;;;9.85;5.07;;;;;;;;;;5015238;28;20045;-82
2022/10/03 03:24:41;;;;;;;12.45;6.45;;;;;;;;;;5025540;28;20046;-82
2022/10/03 03:27:42;;;;;;;12.18;6.50;;;;;;;;;;5015115;28;20038;-82
2022/10/03 03:30:55;;;;;;;11.15;6.57;;;;;;;;;;5015817;28;20046;-83
2022/10/03 03:34:01;;;;;;;9.68;5.70;;;;;;;;;;5014381;28;20041;-82
2022/10/03 03:37:08;;;;;;;9.35;6.45;;;;;;;;;;5014696;28;20054;-82
2022/10/03 03:40:12;;;;;;;16.13;6.68;;;;;;;;;;5015042;28;20045;-82
2022/10/03 03:43:28;;;;;;;15.20;6.60;;;;;;;;;;5015844;28;20054;-83
2022/10/03 03:46:28;;;;;;;11.68;5.85;;;;;;;;;;5006381;28;20037;-81
2022/10/03 03:49:41;;;;;;;8.93;5.47;;;;;;;;;;5000001;28;20042;-82
2022/10/03 03:52:40;;;;;;;11.77;6.38;;;;;;;;;;5014190;28;20434;-81
2022/10/03 03:55:55;;;;;;;15.48;6.10;;;;;;;;;;5014403;28;20045;-82
2022/10/03 03:58:58;;;;;;;11.15;6.25;;;;;;;;;;5013700;28;20037;-82
2022/10/03 04:01:52;;;;;;;11.05;6.32;;;;;;;;;;5014557;28;20050;-82
2022/10/03 04:04:56;;;;;;;11.88;6.20;;;;;;;;;;5014249;28;20399;-82
2022/10/03 04:08:11;;;;;;;10.18;5.70;;;;;;;;;;5014834;28;20037;-82
2022/10/03 04:11:17;;;;;;;12.70;5.97;;;;;;;;;;5020477;28;20045;-82
2022/10/03 04:14:20;;;;;;;12.80;6.55;;;;;;;;;;5014027;28;20041;-82
2022/10/03 04:20:34;;;;;;;12.10;6.15;;;;;;;;;;5015101;28;20400;-83
2022/10/03 04:23:52;;;;;;;9.68;5.22;;;;;;;;;;5001251;28;20045;-82
2022/10/03 04:27:15;;;;;;;8.38;5.78;;;;;;;;;;5017504;28;20050;-82
2022/10/03 04:30:15;;;;;;;11.07;4.30;;;;;;;;;;5016228;28;20042;-83
2022/10/03 04:33:28;;;;;;;10.65;4.18;;;;;;;;;;5015993;28;20479;-82
2022/10/03 04:36:33;;;;;;;9.15;4.70;;;;;;;;;;5018503;28;20038;-83
2022/10/03 04:39:29;;;;;;;12.40;6.10;;;;;;;;;;5027364;28;20038;-84
2022/10/03 04:42:38;;;;;;;8.55;5.97;;;;;;;;;;5009828;28;20049;-82
2022/10/03 04:45:30;;;;;;;9.80;5.70;;;;;;;;;;5017273;28;20475;-83
2022/10/03 04:48:31;;;;;;;10.40;6.10;;;;;;;;;;5017287;28;20033;-83
2022/10/03 04:51:26;;;;;;;9.57;6.00;;;;;;;;;;5018676;28;20197;-83
2022/10/03 04:54:22;;;;;;;8.50;5.63;;;;;;;;;;5018082;28;20483;-85
2022/10/03 04:57:24;;;;;;;13.20;5.80;;;;;;;;;;4993684;28;20503;-82
2022/10/03 05:00:28;;;;;;;10.18;6.25;;;;;;;;;;5009470;28;20053;-83
2022/10/03 05:03:27;;;;;;;11.32;5.32;;;;;;;;;;5016483;28;20037;-85
2022/10/03 05:06:19;;;;;;;8.38;5.72;;;;;;;;;;5017413;28;20042;-85
2022/10/03 05:09:32;;;;;;;12.55;6.20;;;;;;;;;;5017468;28;20050;-85
2022/10/03 05:12:58;;;;;;;14.35;6.57;;;;;;;;;;5017789;28;20049;-85
2022/10/03 05:16:01;;;;;;;14.98;6.30;;;;;;;;;;4938003;29;20051;-85
2022/10/03 05:18:55;;;;;;;14.32;5.90;;;;;;;;;;5009071;28;20034;-85
2022/10/03 05:21:55;;;;;;;9.25;5.60;;;;;;;;;;5008828;28;20041;-85
2022/10/03 05:24:48;;;;;;;10.90;5.88;;;;;;;;;;5016819;28;20038;-84
2022/10/03 05:28:05;;;;;;;12.48;5.97;;;;;;;;;;5016424;28;20041;-83
2022/10/03 05:31:12;;;;;;;11.02;5.60;;;;;;;;;;4991361;28;20042;-82
2022/10/03 05:34:22;;;;;;;7.97;5.40;;;;;;;;;;5017099;28;20049;-83
2022/10/03 05:37:34;;;;;;;10.77;6.25;;;;;;;;;;5017160;28;20038;-83
2022/10/03 05:40:33;;;;;;;12.32;6.47;;;;;;;;;;5018322;28;20053;-83
2022/10/03 05:43:37;;;;;;;9.02;5.18;;;;;;;;;;5017719;28;20041;-83
2022/10/03 05:46:40;;;;;;;10.50;6.00;;;;;;;;;;5018248;28;20038;-84
2022/10/03 05:49:34;;;;;;;8.30;5.20;;;;;;;;;;5002428;28;20042;-83
2022/10/03 05:52:23;;;;;;;11.87;5.60;;;;;;;;;;5016769;28;20050;-82
2022/10/03 05:55:08;;;;;;;9.15;5.68;;;;;;;;;;5019209;28;20271;-83
2022/10/03 05:58:21;;;;;;;9.55;5.88;;;;;;;;;;5032954;28;20033;-84
2022/10/03 06:01:06;;;;;;;9.18;5.47;;;;;;;;;;4998805;28;20042;-83
2022/10/03 06:03:53;;;;;;;;;;;;;;;;;;5007643;28;20053;-84
2022/10/03 06:07:11;;;;;;;8.88;5.97;;;;;;;;;;5015998;28;20252;-83
2022/10/03 06:10:18;;;;;;;7.15;4.90;;;;;;;;;;5015957;28;20037;-84
2022/10/03 06:13:33;;;;;;;8.00;5.32;;;;;;;;;;5001445;28;20041;-83
2022/10/03 06:16:53;;;;;;;11.10;5.70;;;;;;;;;;5016422;28;20041;-84
2022/10/03 06:19:59;;;;;;;10.45;7.32;;;;;;;;;;5015816;28;20042;-84
2022/10/03 06:22:56;;;;;;;8.05;6.05;;;;;;;;;;5007643;28;20046;-83
2022/10/03 06:25:51;;;;;;;8.60;5.70;;;;;;;;;;5015411;28;20045;-84
2022/10/03 06:28:50;;;;;;;11.82;4.90;;;;;;;;;;5007436;28;20042;-83
2022/10/03 06:31:41;;;;;;;7.55;5.97;;;;;;;;;;5015237;28;20502;-84
2022/10/03 06:34:44;;;;;;;8.82;6.00;;;;;;;;;;5000653;28;20042;-84
2022/10/03 06:37:55;;;;;;;10.35;6.07;;;;;;;;;;5015157;28;20041;-84
2022/10/03 06:41:12;;;;;;;13.50;7.93;;;;;;;;;;5015395;28;20045;-84
2022/10/03 06:44:32;;;;;;;10.77;5.90;;;;;;;;;;5015322;28;20057;-83
2022/10/03 06:47:50;;;;;;;15.13;7.80;;;;;;;;;;5020826;28;20041;-83
2022/10/03 06:51:06;;;;;;;11.43;6.80;;;;;;;;;;5015652;28;20046;-84
2022/10/03 06:54:12;;;;;;;12.23;6.70;;;;;;;;;;5020697;28;20030;-85
2022/10/03 06:57:13;;;;;;;14.48;9.00;;;;;;;;;;5015689;28;20054;-83
2022/10/03 07:00:10;;;;;;;13.75;8.32;;;;;;;;;;5015314;28;20054;-85
2022/10/03 07:03:29;;;;;;;12.98;8.27;;;;;;;;;;5020636;28;20053;-84
2022/10/03 07:06:51;;;;;;;13.32;8.60;;;;;;;;;;4996416;28;20049;-85
2022/10/03 07:09:48;;;;;;;10.73;6.65;;;;;;;;;;5000840;28;20049;-84
2022/10/03 07:12:53;;;;;;;14.00;6.53;;;;;;;;;;5016138;28;20038;-84
2022/10/03 07:16:02;;;;;;;8.88;6.35;;;;;;;;;;5019777;28;20487;-85
2022/10/03 07:19:20;;;;;;;11.45;5.93;;;;;;;;;;5033421;28;20042;-85
2022/10/03 07:22:33;;;;;;;7.15;4.07;;;;;;;;;;5014611;28;20488;-85
2022/10/03 07:25:52;;;;;;;5.70;3.53;;;;;;;;;;5000065;28;20046;-84
2022/10/03 07:28:37;;;;;;;8.25;3.85;;;;;;;;;;4986842;28;20073;-83
2022/10/03 07:31:59;;;;;;;8.88;5.72;;;;;;;;;;5013107;28;20046;-85
2022/10/03 07:35:24;;;;;;;9.13;5.60;;;;;;;;;;5013761;28;20046;-84
2022/10/03 07:41:59;;;;;;;6.88;5.22;;;;;;;;;;5014804;28;20046;-85
2022/10/03 07:44:50;;;;;;;5.13;3.53;;;;;;;;;;5014198;28;20038;-79
2022/10/03 07:48:14;;;;;;;5.63;3.67;;;;;;;;;;5014053;28;20078;-80
2022/10/03 07:51:16;;;;;;;10.43;7.13;;;;;;;;;;5020543;28;20046;-79
2022/10/03 07:54:28;;;;;;;73.07;46.92;;;;;;;;;;5020740;28;20041;-79
2022/10/03 07:57:37;;;;;;;24.42;18.85;;;;;;;;;;5017516;28;20049;-78
2022/10/03 08:00:51;;;;;;;71.18;40.70;;;;;;;;;;5014321;28;20042;-76
2022/10/03 08:03:40;;;;;;;81.03;48.75;;;;;;;;;;5013789;28;20041;-77
2022/10/03 08:07:18;;;;;;;44.22;29.45;;;;;;;;;;5014115;28;20045;-77
2022/10/03 08:10:09;;;;;;;14.13;9.13;;;;;;;;;;4981019;28;20035;-79
2022/10/03 08:13:06;;;;;;;44.08;23.83;;;;;;;;;;5020555;28;20046;-78
2022/10/03 08:16:30;;;;;;;9.95;7.30;;;;;;;;;;5014458;28;20046;-78
2022/10/03 08:19:38;;;;;;;11.68;6.07;;;;;;;;;;4981969;28;20053;-79
2022/10/03 08:22:44;;;;;;;7.13;5.55;;;;;;;;;;5016258;28;20046;-78
2022/10/03 08:25:50;;;;;;;7.53;3.70;;;;;;;;;;5015354;28;20050;-79
2022/10/03 08:28:49;;;;;;;6.75;3.78;;;;;;;;;;5022446;28;20479;-79
2022/10/03 08:31:53;;;;;;;7.70;4.25;;;;;;;;;;5014187;28;20038;-78
2022/10/03 08:34:59;;;;;;;2.75;1.80;;;;;;;;;;5014325;28;20042;-82
2022/10/03 08:38:07;;;;;;;3.97;2.75;;;;;;;;;;5024048;28;20045;-84
2022/10/03 08:41:30;;;;;;;6.75;3.05;;;;;;;;;;5020127;28;20045;-82
2022/10/03 08:44:43;;;;;;;4.78;3.47;;;;;;;;;;5013837;28;20476;-83
2022/10/03 08:48:03;;;;;;;4.13;2.45;;;;;;;;;;5013875;28;20041;-83
2022/10/03 08:50:57;;;;;;;6.90;3.05;;;;;;;;;;5014108;28;20050;-82
2022/10/03 08:54:07;;;;;;;9.23;4.18;;;;;;;;;;5013270;28;20038;-82
2022/10/03 08:57:11;;;;;;;8.38;4.25;;;;;;;;;;5017362;28;20057;-81
2022/10/03 09:00:08;;;;;;;2.75;2.22;;;;;;;;;;5013352;28;20050;-77
2022/10/03 09:03:19;;;;;;;3.72;0.77;;;;;;;;;;5020020;28;20050;-80
2022/10/03 09:06:38;;;;;;;9.50;3.30;;;;;;;;;;5013871;28;20407;-82
2022/10/03 09:09:45;;;;;;;5.40;2.25;;;;;;;;;;5019552;28;20042;-80
2022/10/03 09:12:52;;;;;;;12.98;3.60;;;;;;;;;;5020331;28;20045;-79
2022/10/03 09:15:58;;;;;;;2.63;1.50;;;;;;;;;;5013101;28;20050;-81
2022/10/03 09:19:00;;;;;;;6.50;2.60;;;;;;;;;;5020449;28;20084;-81
2022/10/03 09:22:10;;;;;;;4.85;2.15;;;;;;;;;;5017387;28;20395;-80
2022/10/03 09:25:14;;;;;;;3.58;1.65;;;;;;;;;;5016985;28;20399;-79
2022/10/03 09:28:21;;;;;;;10.45;2.38;;;;;;;;;;5016720;28;20037;-81
2022/10/03 09:31:24;;;;;;;3.58;2.42;;;;;;;;;;5017041;28;20050;-82
2022/10/03 09:34:12;;;;;;;2.97;2.08;;;;;;;;;;5017092;28;20046;-80
2022/10/03 09:37:16;;;;;;;3.25;2.13;;;;;;;;;;5008414;28;20046;-81
2022/10/03 09:40:20;;;;;;;5.53;1.02;;;;;;;;;;5016498;28;20042;-80
2022/10/03 09:43:21;;;;;;;2.23;1.70;;;;;;;;;;5016532;28;20042;-81
2022/10/03 09:47:21;;;;;;;5.95;2.25;;;;;;;;;;5016567;28;20049;-81
2022/10/03 09:50:18;;;;;;;3.85;2.40;;;;;;;;;;5016194;28;20395;-81
2022/10/03 09:53:24;;;;;;;4.05;1.55;;;;;;;;;;5016927;28;20475;-81
2022/10/03 09:56:38;;;;;;;1.10;1.00;;;;;;;;;;5016546;28;20042;-79
2022/10/03 09:59:57;;;;;;;4.25;1.85;;;;;;;;;;5007689;28;20050;-80
2022/10/03 10:03:22;;;;;;;2.72;1.08;;;;;;;;;;5016136;28;20049;-81
2022/10/03 10:06:31;;;;;;;1.95;1.25;;;;;;;;;;5015486;28;20046;-80
2022/10/03 10:09:35;;;;;;;1.38;1.05;;;;;;;;;;5015783;28;20038;-79
2022/10/03 10:12:39;;;;;;;0.73;0.60;;;;;;;;;;5022710;28;20049;-81
2022/10/03 10:16:00;;;;;;;4.28;1.10;;;;;;;;;;5016028;28;20749;-81
2022/10/03 10:19:31;;;;;;;1.35;1.10;;;;;;;;;;5022021;28;20049;-81
2022/10/03 10:22:21;;;;;;;2.83;1.35;;;;;;;;;;5000839;28;20033;-82
2022/10/03 10:25:27;;;;;;;5.22;2.42;;;;;;;;;;5016034;28;20050;-81
2022/10/03 10:28:57;;;;;;;2.05;1.25;;;;;;;;;;5022018;28;20042;-80
2022/10/03 10:32:04;;;;;;;1.38;1.15;;;;;;;;;;5016007;28;20050;-81
2022/10/03 10:35:07;;;;;;;1.40;1.13;;;;;;;;;;5023886;28;20062;-81
2022/10/03 10:38:17;;;;;;;3.15;1.15;;;;;;;;;;5016608;28;20046;-81
2022/10/03 10:41:11;;;;;;;1.98;1.10;;;;;;;;;;5016988;28;20046;-81
2022/10/03 10:44:09;;;;;;;0.77;0.68;;;;;;;;;;5016833;28;20042;-81
2022/10/03 10:47:19;;;;;;;1.17;0.90;;;;;;;;;;5022346;28;20050;-82
2022/10/03 10:50:23;;;;;;;5.68;2.78;;;;;;;;;;5015305;28;20046;-81
2022/10/03 10:53:08;;;;;;;5.18;2.70;;;;;;;;;;5007156;28;20049;-82
2022/10/03 10:56:26;;;;;;;3.90;1.63;;;;;;;;;;5014976;28;20049;-83
2022/10/03 10:59:49;;;;;;;3.15;1.73;;;;;;;;;;5015382;28;20042;-82
2022/10/03 11:02:55;;;;;;;5.10;1.98;;;;;;;;;;5014885;28;20050;-81
2022/10/03 11:05:55;;;;;;;3.75;1.35;;;;;;;;;;5014922;28;20041;-82
2022/10/03 11:09:16;;;;;;;1.40;1.00;;;;;;;;;;5022133;28;20045;-82
2022/10/03 11:12:45;;;;;;;5.45;3.47;;;;;;;;;;5015627;28;20038;-82
2022/10/03 11:15:59;;;;;;;4.65;3.28;;;;;;;;;;5014696;28;20053;-82
2022/10/03 11:18:44;;;;;;;2.90;1.92;;;;;;;;;;5015148;28;20042;-79
2022/10/03 11:22:15;;;;;;;6.65;2.60;;;;;;;;;;5014539;28;20037;-81
2022/10/03 11:25:28;;;;;;;6.00;1.42;;;;;;;;;;5007264;28;20395;-82
2022/10/03 11:28:35;;;;;;;1.17;1.08;;;;;;;;;;5021249;28;20058;-81
2022/10/03 11:32:02;;;;;;;5.13;1.50;;;;;;;;;;5014555;28;20042;-83
2022/10/03 11:34:56;;;;;;;2.75;1.63;;;;;;;;;;5014406;28;20058;-82
2022/10/03 11:37:46;;;;;;;2.60;1.35;;;;;;;;;;5014583;28;20041;-83
2022/10/03 11:41:03;;;;;;;5.65;1.65;;;;;;;;;;5020774;28;20046;-82
2022/10/03 11:44:21;;;;;;;5.22;2.50;;;;;;;;;;4984613;28;20484;-81
2022/10/03 11:47:27;;;;;;;4.85;2.40;;;;;;;;;;5014334;28;20034;-83
2022/10/03 11:50:18;;;;;;;;;;;;;;;;;;5014609;28;20038;-83
2022/10/03 11:53:10;;;;;;;4.05;2.20;;;;;;;;;;4999082;28;19913;-82
2022/10/03 11:55:58;;;;;;;1.60;1.08;;;;;;;;;;5013774;28;20038;-82
2022/10/03 11:59:02;;;;;;;4.03;1.27;;;;;;;;;;5013747;28;20046;-78
2022/10/03 12:02:12;;;;;;;3.75;1.60;;;;;;;;;;5020355;28;20037;-83
2022/10/03 12:05:13;;;;;;;5.90;1.67;;;;;;;;;;5014093;28;20038;-82
2022/10/03 12:11:32;;;;;;;5.35;2.10;;;;;;;;;;5013840;28;20108;-83
2022/10/03 12:14:28;;;;;;;3.38;1.63;;;;;;;;;;5020543;28;20037;-82
2022/10/03 12:18:08;;;;;;;4.18;2.30;;;;;;;;;;5020592;28;20391;-81
2022/10/03 12:21:02;;;;;;;3.95;2.00;;;;;;;;;;4951688;28;20047;-81
2022/10/03 12:23:53;;;;;;;2.08;1.60;;;;;;;;;;5014455;28;20042;-81
2022/10/03 12:27:05;;;;;;;5.82;1.50;;;;;;;;;;5023351;28;20049;-81
2022/10/03 12:30:00;;;;;;;4.93;1.83;;;;;;;;;;5014417;28;20471;-82
2022/10/03 12:33:14;;;;;;;3.25;1.67;;;;;;;;;;5020589;28;20046;-82
2022/10/03 12:36:14;;;;;;;2.90;1.30;;;;;;;;;;5008526;28;20053;-80
2022/10/03 12:39:21;;;;;;;4.82;1.33;;;;;;;;;;5013387;28;20042;-80
2022/10/03 12:42:25;;;;;;;2.03;1.38;;;;;;;;;;5013514;28;20387;-80
2022/10/03 12:45:20;;;;;;;3.13;1.52;;;;;;;;;;5013690;28;20042;-81
2022/10/03 12:48:17;;;;;;;1.48;0.93;;;;;;;;;;5014262;28;20042;-79
2022/10/03 12:51:30;;;;;;;3.92;2.15;;;;;;;;;;5022713;28;20041;-83
2022/10/03 12:54:33;;;;;;;3.13;1.85;;;;;;;;;;5016245;28;20049;-84
2022/10/03 12:57:46;;;;;;;8.90;3.03;;;;;;;;;;5016761;28;20049;-83
2022/10/03 13:00:39;;;;;;;3.70;1.83;;;;;;;;;;5017515;28;20046;-81
2022/10/03 13:03:48;;;;;;;1.05;0.95;;;;;;;;;;5018081;28;20046;-82
2022/10/03 13:06:49;;;;;;;1.35;1.13;;;;;;;;;;5024134;28;20046;-80
2022/10/03 13:10:09;;;;;;;2.70;1.95;;;;;;;;;;5016716;28;20042;-81
2022/10/03 13:13:24;;;;;;;4.47;1.63;;;;;;;;;;5017452;28;20403;-82
2022/10/03 13:16:21;;;;;;;4.93;1.95;;;;;;;;;;5023721;28;20042;-81
2022/10/03 13:19:26;;;;;;;4.22;0.90;;;;;;;;;;5016985;28;20050;-81
2022/10/03 13:22:43;;;;;;;3.88;1.27;;;;;;;;;;5023711;28;20038;-81
2022/10/03 13:25:46;;;;;;;3.90;1.40;;;;;;;;;;5016570;28;20423;-81
2022/10/03 13:28:46;;;;;;;3.25;1.50;;;;;;;;;;5023445;28;20046;-82
2022/10/03 13:31:34;;;;;;;6.57;3.25;;;;;;;;;;5016800;28;20054;-82
2022/10/03 13:34:24;;;;;;;4.22;2.10;;;;;;;;;;5016454;28;20422;-82
2022/10/03 13:37:34;;;;;;;3.70;1.33;;;;;;;;;;5016660;28;20045;-82
2022/10/03 13:40:20;;;;;;;1.80;1.42;;;;;;;;;;5016435;28;20041;-81
2022/10/03 13:43:14;;;;;;;7.95;1.30;;;;;;;;;;5027932;28;20050;-81
2022/10/03 13:46:05;;;;;;;1.60;1.08;;;;;;;;;;5016199;28;20407;-82
2022/10/03 13:49:00;;;;;;;3.00;1.25;;;;;;;;;;5016571;28;20407;-80
2022/10/03 13:52:01;;;;;;;6.85;1.67;;;;;;;;;;5023141;28;20480;-82
2022/10/03 13:55:16;;;;;;;3.35;1.60;;;;;;;;;;5016577;28;20045;-84
2022/10/03 13:58:10;;;;;;;4.43;2.38;;;;;;;;;;5018025;28;20062;-85
2022/10/03 14:01:12;;;;;;;4.82;2.60;;;;;;;;;;5015882;28;20404;-83
2022/10/03 14:04:24;;;;;;;3.30;1.45;;;;;;;;;;5002592;28;20515;-81
2022/10/03 14:07:34;;;;;;;2.05;1.38;;;;;;;;;;5015720;28;20050;-83
2022/10/03 14:10:48;;;;;;;5.13;1.08;;;;;;;;;;5015979;28;20038;-83
2022/10/03 14:13:44;;;;;;;3.00;1.48;;;;;;;;;;5015607;28;20050;-82
2022/10/03 14:16:34;;;;;;;2.15;1.20;;;;;;;;;;5015866;28;20042;-82
2022/10/03 14:19:48;;;;;;;1.23;1.05;;;;;;;;;;5022413;28;20041;-82
2022/10/03 14:22:49;;;;;;;4.05;1.13;;;;;;;;;;5015362;28;20037;-80
2022/10/03 14:25:59;;;;;;;2.67;1.40;;;;;;;;;;5015959;28;20049;-84
2022/10/03 14:28:54;;;;;;;6.72;1.45;;;;;;;;;;5022513;28;20042;-85
2022/10/03 14:31:55;;;;;;;3.97;1.17;;;;;;;;;;5015909;28;20050;-84
2022/10/03 14:35:02;;;;;;;2.28;1.42;;;;;;;;;;5022191;28;20046;-84
2022/10/03 14:41:47;;;;;;;1.75;1.27;;;;;;;;;;5005535;28;20046;-82
2022/10/03 14:44:45;;;;;;;3.33;1.52;;;;;;;;;;5015752;28;20042;-83
2022/10/03 14:47:36;;;;;;;6.28;1.48;;;;;;;;;;5022264;28;20049;-83
2022/10/03 14:50:25;;;;;;;10.50;4.57;;;;;;;;;;5015291;28;20046;-84
2022/10/03 14:53:21;;;;;;;4.28;1.38;;;;;;;;;;5016903;28;20042;-84
2022/10/03 14:56:10;;;;;;;3.15;1.95;;;;;;;;;;5022951;28;20045;-85
2022/10/03 14:59:00;;;;;;;5.20;2.90;;;;;;;;;;5030259;28;20042;-88
2022/10/03 15:01:52;;;;;;;6.40;2.78;;;;;;;;;;5021659;28;20046;-86
2022/10/03 15:04:40;;;;;;;5.22;3.05;;;;;;;;;;5018362;28;20034;-86
2022/10/03 15:07:45;;;;;;;6.22;2.47;;;;;;;;;;5007558;28;20053;-86
2022/10/03 15:10:40;;;;;;;4.88;2.90;;;;;;;;;;5017398;28;20046;-86
2022/10/03 15:13:27;;;;;;;4.60;2.53;;;;;;;;;;5016587;28;20042;-86
2022/10/03 15:16:17;;;;;;;6.28;3.15;;;;;;;;;;5016544;28;20038;-87
2022/10/03 15:19:09;;;;;;;7.10;3.08;;;;;;;;;;5007756;28;20046;-86
2022/10/03 15:22:02;;;;;;;4.38;2.47;;;;;;;;;;5016015;28;20042;-87
2022/10/03 15:24:52;;;;;;;11.73;5.63;;;;;;;;;;5001103;28;20045;-86
2022/10/03 15:27:42;;;;;;;9.90;5.43;;;;;;;;;;5015420;28;20042;-87
2022/10/03 15:30:31;;;;;;;11.82;6.07;;;;;;;;;;5015188;28;20042;-87
2022/10/03 15:33:28;;;;;;;14.27;6.28;;;;;;;;;;5022728;28;20041;-85
2022/10/03 15:36:24;;;;;;;9.70;5.68;;;;;;;;;;5016148;28;20041;-85
2022/10/03 15:39:29;;;;;;;6.78;4.00;;;;;;;;;;5016313;28;20042;-85
2022/10/03 15:42:17;;;;;;;17.30;7.20;;;;;;;;;;5016323;28;20050;-86
2022/10/03 15:45:05;;;;;;;17.30;9.00;;;;;;;;;;5021913;28;20042;-86
2022/10/03 15:47:51;;;;;;;25.63;11.90;;;;;;;;;;4998794;28;20058;-85
2022/10/03 15:50:40;;;;;;;26.23;11.80;;;;;;;;;;5013137;28;20042;-85
2022/10/03 15:53:35;;;;;;;7.32;4.13;;;;;;;;;;5014590;28;20042;-82
2022/10/03 15:56:38;;;;;;;5.80;2.70;;;;;;;;;;5021393;28;20045;-82
2022/10/03 15:59:42;;;;;;;7.45;4.20;;;;;;;;;;5014158;28;20045;-84
2022/10/03 16:02:34;;;;;;;7.05;3.75;;;;;;;;;;5014355;28;20033;-82
2022/10/03 16:05:24;;;;;;;6.82;2.88;;;;;;;;;;5014211;28;20041;-83
2022/10/03 16:08:18;;;;;;;5.57;2.90;;;;;;;;;;5013535;28;20045;-84
2022/10/03 16:11:24;;;;;;;8.00;3.10;;;;;;;;;;5013342;28;20057;-85
2022/10/03 16:14:25;;;;;;;5.57;3.20;;;;;;;;;;5014149;28;20050;-83
2022/10/03 16:17:16;;;;;;;11.75;6.30;;;;;;;;;;5002829;28;20523;-83
2022/10/03 16:20:17;;;;;;;17.65;7.43;;;;;;;;;;5014815;28;20053;-83
2022/10/03 16:23:34;;;;;;;14.82;7.63;;;;;;;;;;5013939;28;20481;-83
2022/10/03 16:26:27;;;;;;;22.02;8.98;;;;;;;;;;5006061;28;20387;-83
2022/10/03 16:29:20;;;;;;;14.80;7.88;;;;;;;;;;5016039;28;20050;-81
2022/10/03 16:32:30;;;;;;;15.38;8.15;;;;;;;;;;5018382;28;20483;-80
2022/10/03 16:35:48;;;;;;;15.90;9.60;;;;;;;;;;5017854;28;20041;-81
2022/10/03 16:39:03;;;;;;;14.43;7.53;;;;;;;;;;5024590;28;20041;-80
2022/10/03 16:41:53;;;;;;;14.33;9.70;;;;;;;;;;5018036;28;20034;-81
2022/10/03 16:44:44;;;;;;;35.97;18.10;;;;;;;;;;5009700;28;20275;-81
2022/10/03 16:47:34;;;;;;;40.22;21.25;;;;;;;;;;5024544;28;20053;-81
2022/10/03 16:50:24;;;;;;;27.83;14.82;;;;;;;;;;5024314;28;20041;-80
2022/10/03 16:53:10;;;;;;;29.55;15.38;;;;;;;;;;5009831;28;20050;-80
2022/10/03 16:56:06;;;;;;;17.30;9.85;;;;;;;;;;5017756;28;20038;-80
2022/10/03 16:58:54;;;;;;;13.68;8.80;;;;;;;;;;5023751;28;20058;-80
2022/10/03 17:01:46;;;;;;;32.80;18.45;;;;;;;;;;5018099;28;20391;-80
2022/10/03 17:04:34;;;;;;;49.92;26.58;;;;;;;;;;5023971;28;20058;-81
2022/10/03 17:07:22;;;;;;;46.42;24.92;;;;;;;;;;5024301;28;20041;-81
2022/10/03 17:10:23;;;;;;;43.50;24.02;;;;;;;;;;5017166;28;20042;-80
2022/10/03 17:13:19;;;;;;;41.28;21.48;;;;;;;;;;5017337;28;20045;-79
2022/10/03 17:16:18;;;;;;;43.45;20.80;;;;;;;;;;5024342;28;20045;-80
2022/10/03 17:19:28;;;;;;;47.25;22.00;;;;;;;;;;5023780;28;20053;-80
2022/10/03 17:22:41;;;;;;;52.67;24.15;;;;;;;;;;5012598;28;20053;-80
2022/10/03 17:25:55;;;;;;;57.60;23.83;;;;;;;;;;5023690;28;20050;-81
2022/10/03 17:28:50;;;;;;;80.20;43.00;;;;;;;;;;5023784;28;20049;-80
2022/10/03 17:31:47;;;;;;;89.45;47.05;;;;;;;;;;5017249;28;20030;-79
2022/10/03 17:34:40;;;;;;;71.78;40.85;;;;;;;;;;5016793;28;20476;-81
2022/10/03 17:37:44;;;;;;;59.45;30.50;;;;;;;;;;5018343;28;20045;-81
2022/10/03 17:40:55;;;;;;;37.78;22.23;;;;;;;;;;5015741;28;20049;-81
2022/10/03 17:44:18;;;;;;;38.60;19.55;;;;;;;;;;5023304;28;20041;-80
2022/10/03 17:47:50;;;;;;;40.53;20.50;;;;;;;;;;5016535;28;20038;-82
2022/10/03 17:51:25;;;;;;;36.92;23.02;;;;;;;;;;5008577;28;20042;-81
2022/10/03 17:54:21;;;;;;;37.47;21.55;;;;;;;;;;4996371;28;20042;-79
2022/10/03 17:57:21;;;;;;;41.72;25.45;;;;;;;;;;5020409;28;20066;-81
2022/10/03 18:00:16;;;;;;;40.90;24.35;;;;;;;;;;5016274;28;20042;-80
2022/10/03 18:03:09;;;;;;;40.35;20.80;;;;;;;;;;5016116;28;20387;-81
2022/10/03 18:06:21;;;;;;;34.42;17.38;;;;;;;;;;5008308;28;20046;-80
2022/10/03 18:09:16;;;;;;;32.40;14.88;;;;;;;;;;4994506;28;20050;-80
2022/10/03 18:12:29;;;;;;;34.60;14.68;;;;;;;;;;5008327;28;20387;-81
2022/10/03 18:15:21;;;;;;;13.60;7.45;;;;;;;;;;4997826;28;20041;-80
2022/10/03 18:18:33;;;;;;;12.25;5.75;;;;;;;;;;4993952;28;20041;-80
2022/10/03 18:21:48;;;;;;;8.60;4.25;;;;;;;;;;5015570;28;20046;-79
2022/10/03 18:24:51;;;;;;;15.57;7.13;;;;;;;;;;5000327;28;20041;-80
2022/10/03 18:27:50;;;;;;;15.32;7.20;;;;;;;;;;5016105;28;20042;-79
2022/10/03 18:30:58;;;;;;;17.77;7.40;;;;;;;;;;5022369;28;20050;-79
2022/10/03 18:34:04;;;;;;;22.42;8.45;;;;;;;;;;5015963;28;20041;-80